createdAt,value
2023-07-21T00:02:27.658Z,0.68
2023-07-21T00:05:50.028Z,0.77
2023-07-21T00:09:12.624Z,0.52
2023-07-21T00:12:39.478Z,0.63
2023-07-21T00:16:04.906Z,0.43
2023-07-21T00:19:27.178Z,0.65
2023-07-21T00:22:49.883Z,0.50
2023-07-21T00:26:14.626Z,0.70
2023-07-21T00:29:37.027Z,0.50
2023-07-21T00:33:00.233Z,1.02
2023-07-21T00:36:22.828Z,0.70
2023-07-21T00:39:46.102Z,0.90
2023-07-21T00:43:11.146Z,0.85
2023-07-21T00:46:33.545Z,1.42
2023-07-21T00:49:57.807Z,0.95
2023-07-21T00:53:21.324Z,0.75
2023-07-21T00:56:44.266Z,1.13
2023-07-21T01:00:11.933Z,0.90
2023-07-21T01:03:36.627Z,0.90
2023-07-21T01:07:00.327Z,0.70
2023-07-21T01:10:22.992Z,0.90
2023-07-21T01:13:45.656Z,1.00
2023-07-21T01:17:09.533Z,0.88
2023-07-21T01:20:32.615Z,0.77
2023-07-21T01:24:05.602Z,0.70
2023-07-21T01:27:28.306Z,0.85
2023-07-21T01:30:54.354Z,0.90
2023-07-21T01:34:18.778Z,0.90
2023-07-21T01:37:43.488Z,0.70
2023-07-21T01:41:07.925Z,0.80
2023-07-21T01:44:30.258Z,0.82
2023-07-21T01:47:52.619Z,0.98
2023-07-21T01:51:21.916Z,0.70
2023-07-21T01:54:57.736Z,1.00
2023-07-21T01:58:21.196Z,1.00
2023-07-21T02:01:44.816Z,0.77
2023-07-21T02:05:17.948Z,1.00
2023-07-21T02:08:40.473Z,1.33
2023-07-21T02:12:02.907Z,1.02
2023-07-21T02:15:37.296Z,0.98
2023-07-21T02:18:59.622Z,0.70
2023-07-21T02:22:21.824Z,0.70
2023-07-21T02:25:45.437Z,0.85
2023-07-21T02:29:07.715Z,1.02
2023-07-21T02:32:30.372Z,0.90
2023-07-21T02:35:53.016Z,0.85
2023-07-21T02:39:15.907Z,0.93
2023-07-21T02:42:38.150Z,0.80
2023-07-21T02:46:00.533Z,0.95
2023-07-21T02:49:22.873Z,0.75
2023-07-21T02:52:45.486Z,1.27
2023-07-21T02:56:09.084Z,1.23
2023-07-21T02:59:51.847Z,1.05
2023-07-21T03:03:24.493Z,1.20
2023-07-21T03:06:49.693Z,1.00
2023-07-21T03:10:12.514Z,1.05
2023-07-21T03:13:35.569Z,0.80
2023-07-21T03:16:58.024Z,0.90
2023-07-21T03:20:20.597Z,0.80
2023-07-21T03:23:43.904Z,0.80
2023-07-21T03:27:06.895Z,0.70
2023-07-21T03:30:32.534Z,0.70
2023-07-21T03:34:05.571Z,0.82
2023-07-21T03:37:29.614Z,0.85
2023-07-21T03:41:03.178Z,0.98
2023-07-21T03:44:28.270Z,0.77
2023-07-21T03:47:50.550Z,1.00
2023-07-21T03:51:13.034Z,0.90
2023-07-21T03:54:39.291Z,0.90
2023-07-21T03:58:01.762Z,1.27
2023-07-21T04:01:24.020Z,0.73
2023-07-21T04:04:47.982Z,1.20
2023-07-21T04:08:10.396Z,1.10
2023-07-21T04:11:32.877Z,1.27
2023-07-21T04:14:55.518Z,0.80
2023-07-21T04:18:17.826Z,1.10
2023-07-21T04:21:40.031Z,0.93
2023-07-21T04:25:03.274Z,1.10
2023-07-21T04:28:25.563Z,1.10
2023-07-21T04:31:47.887Z,1.40
2023-07-21T04:35:10.963Z,1.30
2023-07-21T04:38:36.538Z,1.20
2023-07-21T04:42:05.926Z,1.38
2023-07-21T04:45:28.315Z,1.10
2023-07-21T04:49:01.750Z,1.35
2023-07-21T04:52:38.198Z,1.20
2023-07-21T04:56:02.562Z,1.00
2023-07-21T04:59:30.163Z,1.40
2023-07-21T05:02:52.461Z,1.10
2023-07-21T05:06:16.458Z,1.13
2023-07-21T05:09:43.559Z,1.00
2023-07-21T05:13:09.170Z,1.20
2023-07-21T05:16:46.961Z,1.30
2023-07-21T05:20:40.737Z,1.20
2023-07-21T05:24:23.820Z,1.25
2023-07-21T05:27:50.133Z,1.42
2023-07-21T05:31:13.424Z,1.50
2023-07-21T05:34:50.417Z,1.63
2023-07-21T05:38:14.561Z,1.15
2023-07-21T05:41:36.880Z,1.55
2023-07-21T05:44:59.168Z,1.60
2023-07-21T05:48:21.725Z,1.27
2023-07-21T05:51:45.450Z,1.75
2023-07-21T05:55:17.874Z,1.70
2023-07-21T05:58:41.984Z,1.98
2023-07-21T06:02:04.488Z,2.08
2023-07-21T06:05:33.358Z,2.17
2023-07-21T06:09:01.679Z,1.70
2023-07-21T06:12:59.543Z,2.17
2023-07-21T06:16:33.782Z,2.63
2023-07-21T06:19:57.903Z,1.80
2023-07-21T06:23:21.584Z,2.00
2023-07-21T06:26:44.596Z,1.75
2023-07-21T06:30:09.198Z,2.28
2023-07-21T06:33:38.834Z,1.63
2023-07-21T06:37:24.416Z,1.60
2023-07-21T06:41:06.167Z,1.52
2023-07-21T06:44:47.477Z,1.52
2023-07-21T06:48:32.158Z,2.40
2023-07-21T06:52:10.022Z,2.03
2023-07-21T06:55:35.935Z,2.08
2023-07-21T06:58:58.688Z,2.63
2023-07-21T07:02:20.973Z,2.60
2023-07-21T07:05:47.183Z,2.08
2023-07-21T07:09:09.910Z,1.95
2023-07-21T07:12:33.450Z,1.60
2023-07-21T07:15:55.778Z,2.60
2023-07-21T07:19:20.392Z,3.58
2023-07-21T07:22:42.725Z,2.20
2023-07-21T07:26:06.460Z,2.50
2023-07-21T07:29:29.098Z,2.28
2023-07-21T07:32:51.351Z,2.20
2023-07-21T07:36:14.069Z,2.13
2023-07-21T07:39:36.788Z,2.05
2023-07-21T07:42:59.023Z,3.22
2023-07-21T07:46:21.343Z,2.00
2023-07-21T07:49:43.561Z,1.95
2023-07-21T07:53:07.299Z,2.15
2023-07-21T07:56:29.544Z,1.85
2023-07-21T07:59:52.072Z,1.60
2023-07-21T08:03:15.285Z,1.85
2023-07-21T08:06:37.623Z,1.83
2023-07-21T08:10:01.457Z,1.60
2023-07-21T08:13:23.624Z,1.52
2023-07-21T08:16:46.054Z,1.55
2023-07-21T08:20:09.932Z,1.80
2023-07-21T08:23:32.200Z,1.48
2023-07-21T08:26:54.415Z,1.52
2023-07-21T08:30:16.729Z,1.52
2023-07-21T08:33:39.891Z,1.50
2023-07-21T08:37:02.190Z,1.65
2023-07-21T08:40:24.607Z,1.55
2023-07-21T08:43:49.208Z,1.52
2023-07-21T08:47:11.892Z,1.60
2023-07-21T08:50:38.830Z,1.35
2023-07-21T08:54:01.150Z,1.63
2023-07-21T08:57:23.885Z,1.48
2023-07-21T09:00:46.127Z,1.30
2023-07-21T09:04:19.786Z,1.95
2023-07-21T09:07:43.133Z,1.20
2023-07-21T09:11:05.755Z,1.27
2023-07-21T09:14:44.650Z,1.45
2023-07-21T09:18:07.825Z,1.30
2023-07-21T09:21:30.312Z,1.48
2023-07-21T09:24:53.166Z,1.60
2023-07-21T09:28:15.527Z,1.40
2023-07-21T09:31:40.332Z,1.63
2023-07-21T09:35:04.378Z,1.35
2023-07-21T09:38:29.184Z,1.38
2023-07-21T09:41:53.280Z,1.42
2023-07-21T09:45:17.035Z,1.40
2023-07-21T09:48:39.516Z,1.17
2023-07-21T09:52:02.527Z,1.38
2023-07-21T09:55:27.607Z,1.17
2023-07-21T09:58:58.591Z,1.30
2023-07-21T10:02:22.708Z,1.83
2023-07-21T10:05:44.967Z,1.17
2023-07-21T10:09:10.492Z,1.40
2023-07-21T10:12:53.963Z,1.33
2023-07-21T10:16:21.828Z,1.20
2023-07-21T10:19:45.971Z,1.40
2023-07-21T10:23:09.551Z,1.70
2023-07-21T10:26:31.868Z,0.93
2023-07-21T10:30:20.701Z,1.23
2023-07-21T10:33:43.054Z,1.20
2023-07-21T10:37:06.301Z,1.27
2023-07-21T10:40:28.995Z,1.20
2023-07-21T10:43:51.174Z,1.25
2023-07-21T10:47:17.365Z,1.40
2023-07-21T10:50:52.554Z,1.40
2023-07-21T10:54:15.836Z,1.40
2023-07-21T10:57:38.795Z,1.02
2023-07-21T11:01:01.373Z,1.33
2023-07-21T11:04:24.306Z,1.20
2023-07-21T11:07:46.584Z,1.20
2023-07-21T11:11:12.431Z,1.60
2023-07-21T11:14:34.666Z,1.15
2023-07-21T11:18:04.636Z,1.42
2023-07-21T11:21:27.102Z,1.20
2023-07-21T11:25:09.073Z,1.35
2023-07-21T11:28:31.553Z,1.42
2023-07-21T11:31:53.803Z,1.60
2023-07-21T11:35:16.198Z,1.70
2023-07-21T11:38:39.894Z,1.35
2023-07-21T11:42:02.537Z,1.30
2023-07-21T11:45:34.840Z,1.33
2023-07-21T11:48:57.048Z,1.27
2023-07-21T11:52:25.890Z,1.40
2023-07-21T11:55:48.759Z,1.30
2023-07-21T11:59:11.338Z,1.45
2023-07-21T12:02:35.472Z,1.30
2023-07-21T12:05:57.947Z,1.17
2023-07-21T12:09:20.781Z,1.55
2023-07-21T12:12:43.051Z,1.50
2023-07-21T12:16:05.714Z,1.30
2023-07-21T12:19:28.237Z,1.27
2023-07-21T12:22:50.429Z,1.70
2023-07-21T12:26:12.661Z,1.50
2023-07-21T12:29:44.745Z,1.50
2023-07-21T12:33:08.407Z,1.20
2023-07-21T12:36:30.791Z,1.35
2023-07-21T12:39:53.309Z,1.25
2023-07-21T12:43:15.504Z,1.25
2023-07-21T12:46:37.790Z,1.15
2023-07-21T12:50:00.290Z,1.35
2023-07-21T12:53:22.589Z,1.35
2023-07-21T12:56:45.037Z,1.10
2023-07-21T13:00:08.383Z,1.25
2023-07-21T13:03:30.943Z,1.23
2023-07-21T13:06:55.088Z,1.65
2023-07-21T13:10:17.486Z,1.23
2023-07-21T13:13:42.119Z,1.48
2023-07-21T13:17:05.121Z,1.25
2023-07-21T13:20:27.499Z,1.15
2023-07-21T13:23:49.738Z,1.42
2023-07-21T13:27:11.958Z,1.50
2023-07-21T13:30:34.196Z,1.23
2023-07-21T13:33:57.434Z,1.40
2023-07-21T13:37:19.960Z,1.33
2023-07-21T13:40:42.198Z,1.13
2023-07-21T13:44:04.494Z,1.38
2023-07-21T13:47:26.895Z,0.90
2023-07-21T13:50:49.284Z,1.40
2023-07-21T13:54:14.205Z,1.40
2023-07-21T13:57:36.797Z,1.42
2023-07-21T14:00:59.164Z,1.38
2023-07-21T14:04:21.433Z,1.60
2023-07-21T14:07:45.760Z,1.67
2023-07-21T14:11:09.938Z,1.48
2023-07-21T14:14:32.220Z,1.60
2023-07-21T14:17:54.488Z,1.70
2023-07-21T14:21:16.802Z,1.30
2023-07-21T14:24:39.154Z,1.65
2023-07-21T14:28:01.884Z,1.50
2023-07-21T14:31:24.221Z,1.45
2023-07-21T14:34:46.524Z,1.60
2023-07-21T14:38:10.626Z,1.77
2023-07-21T14:41:33.535Z,1.43
2023-07-21T14:44:55.874Z,1.45
2023-07-21T14:48:20.925Z,1.60
2023-07-21T14:51:43.893Z,1.77
2023-07-21T14:55:10.201Z,1.50
2023-07-21T14:58:32.516Z,1.60
2023-07-21T15:01:56.614Z,1.67
2023-07-21T15:05:19.631Z,2.07
2023-07-21T15:08:41.843Z,1.60
2023-07-21T15:12:05.182Z,1.80
2023-07-21T15:15:27.477Z,1.92
2023-07-21T15:18:49.701Z,1.50
2023-07-21T15:22:12.132Z,2.00
2023-07-21T15:25:34.385Z,1.77
2023-07-21T15:28:56.774Z,1.70
2023-07-21T15:32:19.119Z,1.70
2023-07-21T15:35:46.423Z,1.80
2023-07-21T15:39:08.878Z,1.98
2023-07-21T15:42:31.083Z,2.17
2023-07-21T15:45:53.600Z,1.85
2023-07-21T15:49:15.811Z,1.42
2023-07-21T15:52:44.543Z,1.50
2023-07-21T15:56:07.179Z,1.65
2023-07-21T15:59:29.379Z,1.50
2023-07-21T16:02:51.652Z,1.83
2023-07-21T16:06:13.945Z,1.70
2023-07-21T16:09:36.181Z,1.70
2023-07-21T16:12:58.501Z,1.70
2023-07-21T16:16:21.421Z,1.80
2023-07-21T16:19:43.800Z,1.50
2023-07-21T16:23:06.444Z,1.83
2023-07-21T16:26:30.213Z,1.70
2023-07-21T16:29:54.127Z,2.00
2023-07-21T16:33:16.413Z,2.20
2023-07-21T16:36:38.779Z,1.70
2023-07-21T16:40:01.774Z,1.95
2023-07-21T16:43:24.425Z,1.92
2023-07-21T16:46:46.764Z,1.92
2023-07-21T16:50:10.481Z,2.00
2023-07-21T16:53:32.699Z,1.40
2023-07-21T16:56:54.947Z,1.80
2023-07-21T17:00:19.509Z,1.88
2023-07-21T17:03:42.404Z,2.05
2023-07-21T17:07:05.293Z,1.65
2023-07-21T17:10:27.556Z,1.70
2023-07-21T17:13:49.798Z,1.67
2023-07-21T17:17:12.106Z,2.03
2023-07-21T17:20:34.553Z,1.70
2023-07-21T17:23:56.817Z,1.80
2023-07-21T17:27:19.030Z,1.50
2023-07-21T17:30:41.513Z,1.98
2023-07-21T17:34:03.714Z,1.67
2023-07-21T17:37:26.035Z,1.60
2023-07-21T17:41:01.248Z,1.85
2023-07-21T17:47:47.707Z,1.80
2023-07-21T17:51:10.118Z,1.55
2023-07-21T17:54:32.388Z,1.77
2023-07-21T17:57:55.275Z,1.85
2023-07-21T18:01:17.630Z,2.53
2023-07-21T18:04:40.818Z,2.42
2023-07-21T18:08:04.504Z,2.10
2023-07-21T18:11:26.962Z,2.22
2023-07-21T18:14:52.577Z,1.83
2023-07-21T18:18:15.165Z,2.08
2023-07-21T18:21:37.402Z,2.42
2023-07-21T18:25:00.071Z,2.08
2023-07-21T18:28:22.312Z,2.00
2023-07-21T18:31:44.652Z,2.25
2023-07-21T18:35:07.385Z,2.15
2023-07-21T18:38:29.608Z,2.05
2023-07-21T18:41:51.789Z,2.22
2023-07-21T18:45:14.069Z,2.88
2023-07-21T18:48:36.418Z,2.17
2023-07-21T18:51:58.680Z,1.90
2023-07-21T18:55:21.486Z,2.15
2023-07-21T18:58:43.724Z,1.73
2023-07-21T19:02:06.615Z,2.00
2023-07-21T19:05:28.928Z,1.80
2023-07-21T19:08:51.761Z,2.30
2023-07-21T19:12:14.019Z,2.13
2023-07-21T19:15:38.212Z,2.22
2023-07-21T19:19:00.493Z,1.93
2023-07-21T19:22:22.735Z,2.30
2023-07-21T19:25:52.329Z,1.80
2023-07-21T19:29:14.542Z,1.70
2023-07-21T19:32:36.820Z,2.10
2023-07-21T19:35:59.119Z,2.17
2023-07-21T19:39:21.361Z,1.80
2023-07-21T19:42:43.535Z,1.75
2023-07-21T19:46:05.793Z,1.80
2023-07-21T19:49:28.003Z,2.10
2023-07-21T19:52:50.582Z,2.20
2023-07-21T19:56:14.423Z,2.15
2023-07-21T19:59:36.627Z,2.17
2023-07-21T20:02:59.355Z,2.30
2023-07-21T20:06:21.608Z,2.00
2023-07-21T20:09:43.785Z,2.17
2023-07-21T20:13:06.117Z,2.25
2023-07-21T20:16:28.499Z,2.40
2023-07-21T20:19:50.783Z,1.98
2023-07-21T20:23:13.060Z,2.00
2023-07-21T20:26:35.380Z,2.40
2023-07-21T20:29:57.602Z,2.53
2023-07-21T20:33:19.997Z,2.30
2023-07-21T20:36:44.019Z,2.00
2023-07-21T20:40:07.483Z,2.58
2023-07-21T20:43:29.817Z,2.10
2023-07-21T20:46:52.789Z,2.35
2023-07-21T20:50:15.276Z,1.98
2023-07-21T20:53:37.811Z,1.85
2023-07-21T20:57:00.002Z,2.45
2023-07-21T21:00:24.463Z,2.20
2023-07-21T21:03:47.057Z,2.33
2023-07-21T21:07:09.543Z,2.38
2023-07-21T21:10:31.781Z,2.33
2023-07-21T21:13:54.001Z,2.45
2023-07-21T21:17:16.294Z,2.13
2023-07-21T21:20:38.700Z,2.45
2023-07-21T21:24:00.956Z,2.55
2023-07-21T21:27:23.272Z,2.53
2023-07-21T21:30:45.521Z,2.00
2023-07-21T21:34:07.759Z,2.50
2023-07-21T21:37:29.966Z,2.13
2023-07-21T21:40:55.068Z,2.30
2023-07-21T21:44:17.956Z,2.28
2023-07-21T21:47:40.305Z,2.03
2023-07-21T21:51:02.550Z,2.03
2023-07-21T21:54:24.831Z,2.22
2023-07-21T21:57:47.151Z,2.10
2023-07-21T22:01:10.195Z,2.00
2023-07-21T22:04:32.539Z,2.00
2023-07-21T22:07:54.762Z,2.00
2023-07-21T22:11:16.965Z,1.83
2023-07-21T22:14:54.550Z,1.67
2023-07-21T22:18:18.091Z,1.65
2023-07-21T22:21:40.405Z,2.58
2023-07-21T22:25:02.978Z,1.90
2023-07-21T22:28:25.311Z,1.80
2023-07-21T22:31:49.757Z,2.50
2023-07-21T22:35:11.998Z,2.00
2023-07-21T22:38:35.118Z,1.52
2023-07-21T22:41:57.349Z,1.70
2023-07-21T22:45:19.641Z,1.60
2023-07-21T22:48:41.912Z,1.80
2023-07-21T22:52:04.894Z,1.80
2023-07-21T22:55:27.215Z,1.45
2023-07-21T22:58:49.406Z,1.60
2023-07-21T23:02:11.639Z,1.40
2023-07-21T23:05:33.931Z,1.25
2023-07-21T23:08:56.209Z,1.52
2023-07-21T23:12:18.653Z,1.70
2023-07-21T23:15:40.950Z,1.50
2023-07-21T23:19:03.233Z,1.38
2023-07-21T23:22:25.581Z,1.23
2023-07-21T23:25:48.650Z,1.15
2023-07-21T23:29:11.127Z,1.58
2023-07-21T23:32:33.384Z,1.42
2023-07-21T23:35:55.822Z,1.30
2023-07-21T23:39:18.078Z,1.50
2023-07-21T23:42:45.297Z,1.65
2023-07-21T23:46:07.540Z,1.75
2023-07-21T23:49:29.797Z,1.70
2023-07-21T23:52:52.119Z,1.23
2023-07-21T23:56:14.321Z,1.80
2023-07-21T23:59:36.489Z,1.80
